sensor_id;sensor_type;location;lat;lon;timestamp;P1;durP1;ratioP1;P2;durP2;ratioP2
13012;SDS011;22580;57.670;12.006;2022-10-01T00:01:12;0.43;;;0.43;;
13012;SDS011;22580;57.670;12.006;2022-10-01T00:03:41;0.27;;;0.27;;
13012;SDS011;22580;57.670;12.006;2022-10-01T00:06:09;0.47;;;0.47;;
13012;SDS011;22580;57.670;12.006;2022-10-01T00:08:39;0.50;;;0.50;;
13012;SDS011;22580;57.670;12.006;2022-10-01T00:11:07;0.70;;;0.60;;
13012;SDS011;22580;57.670;12.006;2022-10-01T00:13:37;0.50;;;0.50;;
13012;SDS011;22580;57.670;12.006;2022-10-01T00:16:05;0.40;;;0.40;;
13012;SDS011;22580;57.670;12.006;2022-10-01T00:18:34;0.87;;;0.60;;
13012;SDS011;22580;57.670;12.006;2022-10-01T00:21:06;1.47;;;0.77;;
13012;SDS011;22580;57.670;12.006;2022-10-01T00:23:34;0.60;;;0.60;;
13012;SDS011;22580;57.670;12.006;2022-10-01T00:26:09;0.53;;;0.53;;
13012;SDS011;22580;57.670;12.006;2022-10-01T00:28:39;0.67;;;0.67;;
13012;SDS011;22580;57.670;12.006;2022-10-01T00:31:06;1.43;;;0.80;;
13012;SDS011;22580;57.670;12.006;2022-10-01T00:33:38;0.70;;;0.70;;
13012;SDS011;22580;57.670;12.006;2022-10-01T00:36:06;0.70;;;0.70;;
13012;SDS011;22580;57.670;12.006;2022-10-01T00:38:34;0.83;;;0.67;;
13012;SDS011;22580;57.670;12.006;2022-10-01T00:41:02;0.60;;;0.60;;
13012;SDS011;22580;57.670;12.006;2022-10-01T00:43:30;0.60;;;0.60;;
13012;SDS011;22580;57.670;12.006;2022-10-01T00:45:59;0.50;;;0.50;;
13012;SDS011;22580;57.670;12.006;2022-10-01T00:48:33;0.67;;;0.63;;
13012;SDS011;22580;57.670;12.006;2022-10-01T00:51:06;0.50;;;0.50;;
13012;SDS011;22580;57.670;12.006;2022-10-01T00:53:33;1.80;;;0.93;;
13012;SDS011;22580;57.670;12.006;2022-10-01T00:56:00;0.40;;;0.40;;
13012;SDS011;22580;57.670;12.006;2022-10-01T00:58:27;0.50;;;0.50;;
13012;SDS011;22580;57.670;12.006;2022-10-01T01:00:54;0.50;;;0.50;;
13012;SDS011;22580;57.670;12.006;2022-10-01T01:03:25;0.43;;;0.43;;
13012;SDS011;22580;57.670;12.006;2022-10-01T01:05:53;0.30;;;0.30;;
13012;SDS011;22580;57.670;12.006;2022-10-01T01:08:20;0.40;;;0.40;;
13012;SDS011;22580;57.670;12.006;2022-10-01T01:10:49;0.23;;;0.23;;
13012;SDS011;22580;57.670;12.006;2022-10-01T01:13:33;0.33;;;0.33;;
13012;SDS011;22580;57.670;12.006;2022-10-01T01:16:08;1.47;;;0.80;;
13012;SDS011;22580;57.670;12.006;2022-10-01T01:18:41;1.03;;;0.70;;
13012;SDS011;22580;57.670;12.006;2022-10-01T01:21:18;0.50;;;0.50;;
13012;SDS011;22580;57.670;12.006;2022-10-01T01:23:55;0.70;;;0.50;;
13012;SDS011;22580;57.670;12.006;2022-10-01T01:26:40;0.80;;;0.80;;
13012;SDS011;22580;57.670;12.006;2022-10-01T01:29:19;0.90;;;0.90;;
13012;SDS011;22580;57.670;12.006;2022-10-01T01:31:56;1.13;;;1.10;;
13012;SDS011;22580;57.670;12.006;2022-10-01T01:34:27;0.80;;;0.80;;
13012;SDS011;22580;57.670;12.006;2022-10-01T01:36:59;0.80;;;0.80;;
13012;SDS011;22580;57.670;12.006;2022-10-01T01:39:32;0.70;;;0.70;;
13012;SDS011;22580;57.670;12.006;2022-10-01T01:42:02;0.60;;;0.60;;
13012;SDS011;22580;57.670;12.006;2022-10-01T01:44:35;0.73;;;0.70;;
13012;SDS011;22580;57.670;12.006;2022-10-01T01:47:09;0.70;;;0.70;;
13012;SDS011;22580;57.670;12.006;2022-10-01T01:49:38;0.70;;;0.70;;
13012;SDS011;22580;57.670;12.006;2022-10-01T01:52:09;0.93;;;0.70;;
13012;SDS011;22580;57.670;12.006;2022-10-01T01:54:39;0.73;;;0.70;;
13012;SDS011;22580;57.670;12.006;2022-10-01T01:57:09;1.23;;;0.90;;
13012;SDS011;22580;57.670;12.006;2022-10-01T01:59:39;0.80;;;0.80;;
13012;SDS011;22580;57.670;12.006;2022-10-01T02:02:10;0.93;;;0.93;;
13012;SDS011;22580;57.670;12.006;2022-10-01T02:04:39;1.40;;;1.30;;
13012;SDS011;22580;57.670;12.006;2022-10-01T02:07:16;1.40;;;1.30;;
13012;SDS011;22580;57.670;12.006;2022-10-01T02:09:56;0.90;;;0.90;;
13012;SDS011;22580;57.670;12.006;2022-10-01T02:12:32;0.80;;;0.80;;
13012;SDS011;22580;57.670;12.006;2022-10-01T02:15:11;1.00;;;1.00;;
13012;SDS011;22580;57.670;12.006;2022-10-01T02:17:46;1.20;;;1.20;;
13012;SDS011;22580;57.670;12.006;2022-10-01T02:20:20;0.90;;;0.90;;
13012;SDS011;22580;57.670;12.006;2022-10-01T02:22:54;1.33;;;1.23;;
13012;SDS011;22580;57.670;12.006;2022-10-01T02:25:26;2.03;;;1.93;;
13012;SDS011;22580;57.670;12.006;2022-10-01T02:28:02;2.10;;;1.60;;
13012;SDS011;22580;57.670;12.006;2022-10-01T02:30:36;2.03;;;1.83;;
13012;SDS011;22580;57.670;12.006;2022-10-01T02:33:06;1.90;;;1.80;;
13012;SDS011;22580;57.670;12.006;2022-10-01T02:35:35;2.33;;;2.17;;
13012;SDS011;22580;57.670;12.006;2022-10-01T02:38:05;2.90;;;2.40;;
13012;SDS011;22580;57.670;12.006;2022-10-01T02:40:35;2.30;;;2.10;;
13012;SDS011;22580;57.670;12.006;2022-10-01T02:43:08;2.10;;;2.00;;
13012;SDS011;22580;57.670;12.006;2022-10-01T02:45:39;3.03;;;2.70;;
13012;SDS011;22580;57.670;12.006;2022-10-01T02:48:09;3.40;;;3.10;;
13012;SDS011;22580;57.670;12.006;2022-10-01T02:50:43;3.37;;;3.07;;
13012;SDS011;22580;57.670;12.006;2022-10-01T02:53:16;3.57;;;3.27;;
13012;SDS011;22580;57.670;12.006;2022-10-01T02:55:47;3.00;;;2.80;;
13012;SDS011;22580;57.670;12.006;2022-10-01T02:58:20;2.90;;;2.70;;
13012;SDS011;22580;57.670;12.006;2022-10-01T03:00:48;3.10;;;2.90;;
13012;SDS011;22580;57.670;12.006;2022-10-01T03:03:19;3.93;;;2.80;;
13012;SDS011;22580;57.670;12.006;2022-10-01T03:05:47;3.60;;;3.27;;
13012;SDS011;22580;57.670;12.006;2022-10-01T03:08:14;3.27;;;3.07;;
13012;SDS011;22580;57.670;12.006;2022-10-01T03:10:41;3.23;;;3.03;;
13012;SDS011;22580;57.670;12.006;2022-10-01T03:13:08;3.87;;;3.57;;
13012;SDS011;22580;57.670;12.006;2022-10-01T03:15:38;2.97;;;2.70;;
13012;SDS011;22580;57.670;12.006;2022-10-01T03:18:07;2.90;;;2.70;;
13012;SDS011;22580;57.670;12.006;2022-10-01T03:20:35;3.20;;;2.90;;
13012;SDS011;22580;57.670;12.006;2022-10-01T03:23:02;2.60;;;2.40;;
13012;SDS011;22580;57.670;12.006;2022-10-01T03:25:31;2.50;;;2.30;;
13012;SDS011;22580;57.670;12.006;2022-10-01T03:27:58;2.47;;;2.30;;
13012;SDS011;22580;57.670;12.006;2022-10-01T03:30:27;2.50;;;2.30;;
13012;SDS011;22580;57.670;12.006;2022-10-01T03:32:54;3.30;;;3.00;;
13012;SDS011;22580;57.670;12.006;2022-10-01T03:35:23;2.80;;;2.60;;
13012;SDS011;22580;57.670;12.006;2022-10-01T03:37:53;3.33;;;2.90;;
13012;SDS011;22580;57.670;12.006;2022-10-01T03:40:20;2.80;;;2.60;;
13012;SDS011;22580;57.670;12.006;2022-10-01T03:42:46;2.63;;;2.43;;
13012;SDS011;22580;57.670;12.006;2022-10-01T03:45:19;2.70;;;2.50;;
13012;SDS011;22580;57.670;12.006;2022-10-01T03:47:50;2.50;;;2.37;;
13012;SDS011;22580;57.670;12.006;2022-10-01T03:50:17;2.80;;;2.60;;
13012;SDS011;22580;57.670;12.006;2022-10-01T03:52:47;2.87;;;2.67;;
13012;SDS011;22580;57.670;12.006;2022-10-01T03:55:14;3.03;;;2.73;;
13012;SDS011;22580;57.670;12.006;2022-10-01T03:57:41;2.40;;;2.27;;
13012;SDS011;22580;57.670;12.006;2022-10-01T04:00:09;2.13;;;2.03;;
13012;SDS011;22580;57.670;12.006;2022-10-01T04:02:38;2.93;;;2.73;;
13012;SDS011;22580;57.670;12.006;2022-10-01T04:05:07;2.90;;;2.70;;
13012;SDS011;22580;57.670;12.006;2022-10-01T04:07:34;2.67;;;2.47;;
13012;SDS011;22580;57.670;12.006;2022-10-01T04:10:12;3.33;;;3.13;;
13012;SDS011;22580;57.670;12.006;2022-10-01T04:12:39;3.13;;;2.93;;
13012;SDS011;22580;57.670;12.006;2022-10-01T04:15:08;2.60;;;2.23;;
13012;SDS011;22580;57.670;12.006;2022-10-01T04:17:35;2.80;;;2.60;;
13012;SDS011;22580;57.670;12.006;2022-10-01T04:20:05;4.17;;;3.87;;
13012;SDS011;22580;57.670;12.006;2022-10-01T04:22:35;3.20;;;3.00;;
13012;SDS011;22580;57.670;12.006;2022-10-01T04:25:05;2.87;;;2.67;;
13012;SDS011;22580;57.670;12.006;2022-10-01T04:27:36;3.60;;;3.30;;
13012;SDS011;22580;57.670;12.006;2022-10-01T04:30:05;3.57;;;3.30;;
13012;SDS011;22580;57.670;12.006;2022-10-01T04:32:33;3.50;;;3.20;;
13012;SDS011;22580;57.670;12.006;2022-10-01T04:35:01;4.20;;;3.80;;
13012;SDS011;22580;57.670;12.006;2022-10-01T04:37:28;4.40;;;4.00;;
13012;SDS011;22580;57.670;12.006;2022-10-01T04:39:56;3.70;;;3.43;;
13012;SDS011;22580;57.670;12.006;2022-10-01T04:42:25;3.20;;;3.00;;
13012;SDS011;22580;57.670;12.006;2022-10-01T04:44:53;3.80;;;3.40;;
13012;SDS011;22580;57.670;12.006;2022-10-01T04:47:21;3.77;;;3.47;;
13012;SDS011;22580;57.670;12.006;2022-10-01T04:49:48;3.27;;;3.07;;
13012;SDS011;22580;57.670;12.006;2022-10-01T04:52:16;3.57;;;3.37;;
13012;SDS011;22580;57.670;12.006;2022-10-01T04:54:44;3.47;;;3.27;;
13012;SDS011;22580;57.670;12.006;2022-10-01T04:57:13;3.07;;;2.87;;
13012;SDS011;22580;57.670;12.006;2022-10-01T04:59:40;4.10;;;3.70;;
13012;SDS011;22580;57.670;12.006;2022-10-01T05:02:16;3.97;;;3.67;;
13012;SDS011;22580;57.670;12.006;2022-10-01T05:04:48;3.60;;;3.30;;
13012;SDS011;22580;57.670;12.006;2022-10-01T05:07:20;4.07;;;3.77;;
13012;SDS011;22580;57.670;12.006;2022-10-01T05:09:47;3.97;;;3.67;;
13012;SDS011;22580;57.670;12.006;2022-10-01T05:12:14;4.27;;;3.97;;
13012;SDS011;22580;57.670;12.006;2022-10-01T05:14:41;3.47;;;3.27;;
13012;SDS011;22580;57.670;12.006;2022-10-01T05:17:11;4.83;;;4.43;;
13012;SDS011;22580;57.670;12.006;2022-10-01T05:19:42;4.13;;;3.83;;
13012;SDS011;22580;57.670;12.006;2022-10-01T05:22:09;3.70;;;3.50;;
13012;SDS011;22580;57.670;12.006;2022-10-01T05:24:36;3.83;;;3.53;;
13012;SDS011;22580;57.670;12.006;2022-10-01T05:27:04;4.37;;;4.07;;
13012;SDS011;22580;57.670;12.006;2022-10-01T05:29:36;3.90;;;3.60;;
13012;SDS011;22580;57.670;12.006;2022-10-01T05:32:03;3.33;;;3.03;;
13012;SDS011;22580;57.670;12.006;2022-10-01T05:34:31;4.47;;;4.07;;
13012;SDS011;22580;57.670;12.006;2022-10-01T05:36:58;3.60;;;3.30;;
13012;SDS011;22580;57.670;12.006;2022-10-01T05:39:31;3.63;;;3.33;;
13012;SDS011;22580;57.670;12.006;2022-10-01T05:41:58;3.23;;;3.03;;
13012;SDS011;22580;57.670;12.006;2022-10-01T05:44:26;3.40;;;3.10;;
13012;SDS011;22580;57.670;12.006;2022-10-01T05:46:53;3.30;;;3.00;;
13012;SDS011;22580;57.670;12.006;2022-10-01T05:49:21;4.10;;;3.70;;
13012;SDS011;22580;57.670;12.006;2022-10-01T05:51:54;3.77;;;3.47;;
13012;SDS011;22580;57.670;12.006;2022-10-01T05:54:21;3.40;;;3.20;;
13012;SDS011;22580;57.670;12.006;2022-10-01T05:56:49;4.17;;;3.87;;
13012;SDS011;22580;57.670;12.006;2022-10-01T05:59:17;3.97;;;3.67;;
13012;SDS011;22580;57.670;12.006;2022-10-01T06:01:44;3.83;;;3.60;;
13012;SDS011;22580;57.670;12.006;2022-10-01T06:04:13;3.73;;;3.43;;
13012;SDS011;22580;57.670;12.006;2022-10-01T06:06:40;3.47;;;3.27;;
13012;SDS011;22580;57.670;12.006;2022-10-01T06:09:09;3.20;;;3.00;;
13012;SDS011;22580;57.670;12.006;2022-10-01T06:11:36;3.47;;;3.17;;
13012;SDS011;22580;57.670;12.006;2022-10-01T06:14:04;3.20;;;2.90;;
13012;SDS011;22580;57.670;12.006;2022-10-01T06:16:31;3.07;;;2.80;;
13012;SDS011;22580;57.670;12.006;2022-10-01T06:18:58;2.83;;;2.63;;
13012;SDS011;22580;57.670;12.006;2022-10-01T06:21:25;2.67;;;2.47;;
13012;SDS011;22580;57.670;12.006;2022-10-01T06:23:54;3.07;;;2.77;;
13012;SDS011;22580;57.670;12.006;2022-10-01T06:26:22;3.07;;;2.87;;
13012;SDS011;22580;57.670;12.006;2022-10-01T06:28:50;3.50;;;3.30;;
13012;SDS011;22580;57.670;12.006;2022-10-01T06:31:20;3.70;;;3.50;;
13012;SDS011;22580;57.670;12.006;2022-10-01T06:33:49;3.47;;;3.17;;
13012;SDS011;22580;57.670;12.006;2022-10-01T06:36:16;2.93;;;2.70;;
13012;SDS011;22580;57.670;12.006;2022-10-01T06:38:43;4.73;;;4.27;;
13012;SDS011;22580;57.670;12.006;2022-10-01T06:41:16;4.57;;;4.17;;
13012;SDS011;22580;57.670;12.006;2022-10-01T06:43:49;3.57;;;3.27;;
13012;SDS011;22580;57.670;12.006;2022-10-01T06:46:18;3.77;;;3.47;;
13012;SDS011;22580;57.670;12.006;2022-10-01T06:48:48;3.83;;;3.53;;
13012;SDS011;22580;57.670;12.006;2022-10-01T06:51:15;3.47;;;3.27;;
13012;SDS011;22580;57.670;12.006;2022-10-01T06:54:02;3.40;;;3.10;;
13012;SDS011;22580;57.670;12.006;2022-10-01T06:56:29;3.17;;;2.83;;
13012;SDS011;22580;57.670;12.006;2022-10-01T06:59:00;2.80;;;2.60;;
13012;SDS011;22580;57.670;12.006;2022-10-01T07:01:29;3.03;;;2.77;;
13012;SDS011;22580;57.670;12.006;2022-10-01T07:04:00;2.63;;;2.43;;
13012;SDS011;22580;57.670;12.006;2022-10-01T07:06:30;2.70;;;2.50;;
13012;SDS011;22580;57.670;12.006;2022-10-01T07:08:57;3.20;;;2.90;;
13012;SDS011;22580;57.670;12.006;2022-10-01T07:11:25;3.87;;;3.57;;
13012;SDS011;22580;57.670;12.006;2022-10-01T07:13:52;4.10;;;3.80;;
13012;SDS011;22580;57.670;12.006;2022-10-01T07:16:21;3.10;;;2.90;;
13012;SDS011;22580;57.670;12.006;2022-10-01T07:18:49;3.60;;;3.30;;
13012;SDS011;22580;57.670;12.006;2022-10-01T07:21:17;3.03;;;2.83;;
13012;SDS011;22580;57.670;12.006;2022-10-01T07:23:43;2.90;;;2.70;;
13012;SDS011;22580;57.670;12.006;2022-10-01T07:26:10;2.70;;;2.50;;
13012;SDS011;22580;57.670;12.006;2022-10-01T07:28:39;2.47;;;2.37;;
13012;SDS011;22580;57.670;12.006;2022-10-01T07:31:07;3.10;;;2.80;;
13012;SDS011;22580;57.670;12.006;2022-10-01T07:33:37;3.53;;;3.23;;
13012;SDS011;22580;57.670;12.006;2022-10-01T07:36:05;3.50;;;3.20;;
13012;SDS011;22580;57.670;12.006;2022-10-01T07:38:33;3.23;;;2.93;;
13012;SDS011;22580;57.670;12.006;2022-10-01T07:41:01;3.10;;;2.90;;
13012;SDS011;22580;57.670;12.006;2022-10-01T07:43:28;3.10;;;2.90;;
13012;SDS011;22580;57.670;12.006;2022-10-01T07:45:56;3.77;;;3.47;;
13012;SDS011;22580;57.670;12.006;2022-10-01T07:48:24;2.70;;;2.50;;
13012;SDS011;22580;57.670;12.006;2022-10-01T07:50:52;2.87;;;2.67;;
13012;SDS011;22580;57.670;12.006;2022-10-01T07:53:22;3.40;;;3.20;;
13012;SDS011;22580;57.670;12.006;2022-10-01T07:55:49;2.90;;;2.70;;
13012;SDS011;22580;57.670;12.006;2022-10-01T07:58:16;2.93;;;2.73;;
13012;SDS011;22580;57.670;12.006;2022-10-01T08:00:48;2.37;;;2.27;;
13012;SDS011;22580;57.670;12.006;2022-10-01T08:03:19;2.43;;;2.33;;
13012;SDS011;22580;57.670;12.006;2022-10-01T08:05:46;2.57;;;2.37;;
13012;SDS011;22580;57.670;12.006;2022-10-01T08:08:15;2.10;;;2.00;;
13012;SDS011;22580;57.670;12.006;2022-10-01T08:10:42;2.80;;;2.60;;
13012;SDS011;22580;57.670;12.006;2022-10-01T08:13:10;2.67;;;2.47;;
13012;SDS011;22580;57.670;12.006;2022-10-01T08:15:39;2.63;;;2.43;;
13012;SDS011;22580;57.670;12.006;2022-10-01T08:18:07;2.10;;;2.00;;
13012;SDS011;22580;57.670;12.006;2022-10-01T08:20:35;1.73;;;1.63;;
13012;SDS011;22580;57.670;12.006;2022-10-01T08:23:04;2.00;;;1.90;;
13012;SDS011;22580;57.670;12.006;2022-10-01T08:25:34;2.40;;;2.20;;
13012;SDS011;22580;57.670;12.006;2022-10-01T08:28:02;4.30;;;3.00;;
13012;SDS011;22580;57.670;12.006;2022-10-01T08:30:29;4.83;;;3.70;;
13012;SDS011;22580;57.670;12.006;2022-10-01T08:32:57;4.20;;;3.80;;
13012;SDS011;22580;57.670;12.006;2022-10-01T08:35:25;7.90;;;4.90;;
13012;SDS011;22580;57.670;12.006;2022-10-01T08:37:54;8.90;;;5.47;;
13012;SDS011;22580;57.670;12.006;2022-10-01T08:40:21;6.67;;;4.27;;
13012;SDS011;22580;57.670;12.006;2022-10-01T08:42:52;5.23;;;3.53;;
13012;SDS011;22580;57.670;12.006;2022-10-01T08:45:24;5.47;;;4.13;;
13012;SDS011;22580;57.670;12.006;2022-10-01T08:47:56;4.77;;;3.70;;
13012;SDS011;22580;57.670;12.006;2022-10-01T08:50:45;3.30;;;3.00;;
13012;SDS011;22580;57.670;12.006;2022-10-01T08:53:24;3.47;;;3.17;;
13012;SDS011;22580;57.670;12.006;2022-10-01T08:55:55;2.70;;;2.50;;
13012;SDS011;22580;57.670;12.006;2022-10-01T08:58:25;2.47;;;2.27;;
13012;SDS011;22580;57.670;12.006;2022-10-01T09:00:58;2.50;;;2.40;;
13012;SDS011;22580;57.670;12.006;2022-10-01T09:03:25;2.67;;;2.47;;
13012;SDS011;22580;57.670;12.006;2022-10-01T09:06:02;2.00;;;1.90;;
13012;SDS011;22580;57.670;12.006;2022-10-01T09:08:42;2.20;;;2.00;;
13012;SDS011;22580;57.670;12.006;2022-10-01T09:11:25;2.30;;;2.20;;
13012;SDS011;22580;57.670;12.006;2022-10-01T09:14:10;2.40;;;2.20;;
13012;SDS011;22580;57.670;12.006;2022-10-01T09:16:50;2.27;;;2.00;;
13012;SDS011;22580;57.670;12.006;2022-10-01T09:19:30;2.70;;;2.50;;
13012;SDS011;22580;57.670;12.006;2022-10-01T09:22:16;2.20;;;2.10;;
13012;SDS011;22580;57.670;12.006;2022-10-01T09:24:53;1.83;;;1.73;;
13012;SDS011;22580;57.670;12.006;2022-10-01T09:27:26;1.80;;;1.70;;
13012;SDS011;22580;57.670;12.006;2022-10-01T09:29:56;1.70;;;1.60;;
13012;SDS011;22580;57.670;12.006;2022-10-01T09:32:27;1.80;;;1.70;;
13012;SDS011;22580;57.670;12.006;2022-10-01T09:35:08;2.23;;;1.90;;
13012;SDS011;22580;57.670;12.006;2022-10-01T09:37:47;2.03;;;1.93;;
13012;SDS011;22580;57.670;12.006;2022-10-01T09:40:20;1.87;;;1.77;;
13012;SDS011;22580;57.670;12.006;2022-10-01T09:42:52;1.30;;;1.30;;
13012;SDS011;22580;57.670;12.006;2022-10-01T09:45:21;1.50;;;1.40;;
13012;SDS011;22580;57.670;12.006;2022-10-01T09:47:50;1.70;;;1.60;;
13012;SDS011;22580;57.670;12.006;2022-10-01T09:50:24;1.93;;;1.73;;
13012;SDS011;22580;57.670;12.006;2022-10-01T09:52:56;1.57;;;1.47;;
13012;SDS011;22580;57.670;12.006;2022-10-01T09:55:27;1.60;;;1.50;;
13012;SDS011;22580;57.670;12.006;2022-10-01T09:57:58;1.80;;;1.70;;
13012;SDS011;22580;57.670;12.006;2022-10-01T10:00:31;1.73;;;1.63;;
13012;SDS011;22580;57.670;12.006;2022-10-01T10:02:59;2.00;;;1.80;;
13012;SDS011;22580;57.670;12.006;2022-10-01T10:05:26;1.90;;;1.80;;
13012;SDS011;22580;57.670;12.006;2022-10-01T10:07:56;1.60;;;1.43;;
13012;SDS011;22580;57.670;12.006;2022-10-01T10:10:26;1.87;;;1.77;;
13012;SDS011;22580;57.670;12.006;2022-10-01T10:12:55;1.90;;;1.80;;
13012;SDS011;22580;57.670;12.006;2022-10-01T10:15:26;1.70;;;1.60;;
13012;SDS011;22580;57.670;12.006;2022-10-01T10:17:56;2.03;;;1.93;;
13012;SDS011;22580;57.670;12.006;2022-10-01T10:20:32;1.70;;;1.60;;
13012;SDS011;22580;57.670;12.006;2022-10-01T10:23:05;1.70;;;1.60;;
13012;SDS011;22580;57.670;12.006;2022-10-01T10:25:33;1.50;;;1.40;;
13012;SDS011;22580;57.670;12.006;2022-10-01T10:28:00;1.33;;;1.30;;
13012;SDS011;22580;57.670;12.006;2022-10-01T10:30:27;2.33;;;1.97;;
13012;SDS011;22580;57.670;12.006;2022-10-01T10:33:03;1.70;;;1.60;;
13012;SDS011;22580;57.670;12.006;2022-10-01T10:35:32;1.67;;;1.57;;
13012;SDS011;22580;57.670;12.006;2022-10-01T10:38:00;1.70;;;1.60;;
13012;SDS011;22580;57.670;12.006;2022-10-01T10:40:29;2.47;;;1.90;;
13012;SDS011;22580;57.670;12.006;2022-10-01T10:43:01;1.60;;;1.50;;
13012;SDS011;22580;57.670;12.006;2022-10-01T10:45:30;1.60;;;1.50;;
13012;SDS011;22580;57.670;12.006;2022-10-01T10:48:03;1.70;;;1.60;;
13012;SDS011;22580;57.670;12.006;2022-10-01T10:50:38;1.60;;;1.50;;
13012;SDS011;22580;57.670;12.006;2022-10-01T10:53:18;1.90;;;1.80;;
13012;SDS011;22580;57.670;12.006;2022-10-01T10:55:52;1.93;;;1.83;;
13012;SDS011;22580;57.670;12.006;2022-10-01T10:58:23;1.80;;;1.70;;
13012;SDS011;22580;57.670;12.006;2022-10-01T11:00:51;1.60;;;1.50;;
13012;SDS011;22580;57.670;12.006;2022-10-01T11:03:23;1.60;;;1.47;;
13012;SDS011;22580;57.670;12.006;2022-10-01T11:05:52;2.07;;;1.87;;
13012;SDS011;22580;57.670;12.006;2022-10-01T11:08:22;1.73;;;1.63;;
13012;SDS011;22580;57.670;12.006;2022-10-01T11:10:55;1.80;;;1.70;;
13012;SDS011;22580;57.670;12.006;2022-10-01T11:13:41;1.73;;;1.60;;
13012;SDS011;22580;57.670;12.006;2022-10-01T11:16:30;1.93;;;1.73;;
13012;SDS011;22580;57.670;12.006;2022-10-01T11:19:17;1.80;;;1.70;;
13012;SDS011;22580;57.670;12.006;2022-10-01T11:22:00;2.00;;;1.90;;
13012;SDS011;22580;57.670;12.006;2022-10-01T11:24:49;1.90;;;1.63;;
13012;SDS011;22580;57.670;12.006;2022-10-01T11:27:27;1.60;;;1.50;;
13012;SDS011;22580;57.670;12.006;2022-10-01T11:30:06;1.60;;;1.50;;
13012;SDS011;22580;57.670;12.006;2022-10-01T11:32:38;1.30;;;1.20;;
13012;SDS011;22580;57.670;12.006;2022-10-01T11:35:20;1.10;;;1.10;;
13012;SDS011;22580;57.670;12.006;2022-10-01T11:38:06;1.10;;;1.10;;
13012;SDS011;22580;57.670;12.006;2022-10-01T11:40:53;1.00;;;1.00;;
13012;SDS011;22580;57.670;12.006;2022-10-01T11:43:27;1.50;;;1.40;;
13012;SDS011;22580;57.670;12.006;2022-10-01T11:46:02;1.40;;;1.30;;
13012;SDS011;22580;57.670;12.006;2022-10-01T11:48:36;1.50;;;1.40;;
13012;SDS011;22580;57.670;12.006;2022-10-01T11:51:08;1.40;;;1.30;;
13012;SDS011;22580;57.670;12.006;2022-10-01T11:53:40;1.10;;;1.10;;
13012;SDS011;22580;57.670;12.006;2022-10-01T11:56:12;2.17;;;1.30;;
13012;SDS011;22580;57.670;12.006;2022-10-01T11:59:03;1.43;;;1.37;;
13012;SDS011;22580;57.670;12.006;2022-10-01T12:01:36;1.43;;;1.33;;
13012;SDS011;22580;57.670;12.006;2022-10-01T12:04:18;1.20;;;1.20;;
13012;SDS011;22580;57.670;12.006;2022-10-01T12:06:57;1.63;;;1.50;;
13012;SDS011;22580;57.670;12.006;2022-10-01T12:09:31;1.30;;;1.20;;
13012;SDS011;22580;57.670;12.006;2022-10-01T12:12:09;1.50;;;1.40;;
13012;SDS011;22580;57.670;12.006;2022-10-01T12:14:42;1.40;;;1.10;;
13012;SDS011;22580;57.670;12.006;2022-10-01T12:17:17;0.80;;;0.80;;
13012;SDS011;22580;57.670;12.006;2022-10-01T12:19:49;1.40;;;1.17;;
13012;SDS011;22580;57.670;12.006;2022-10-01T12:22:22;0.80;;;0.80;;
13012;SDS011;22580;57.670;12.006;2022-10-01T12:24:52;0.70;;;0.70;;
13012;SDS011;22580;57.670;12.006;2022-10-01T12:27:26;0.60;;;0.60;;
13012;SDS011;22580;57.670;12.006;2022-10-01T12:30:01;0.63;;;0.63;;
13012;SDS011;22580;57.670;12.006;2022-10-01T12:32:37;0.47;;;0.47;;
13012;SDS011;22580;57.670;12.006;2022-10-01T12:35:17;0.77;;;0.77;;
13012;SDS011;22580;57.670;12.006;2022-10-01T12:37:58;0.60;;;0.60;;
13012;SDS011;22580;57.670;12.006;2022-10-01T12:40:39;0.63;;;0.50;;
13012;SDS011;22580;57.670;12.006;2022-10-01T12:46:18;0.57;;;0.57;;
13012;SDS011;22580;57.670;12.006;2022-10-01T12:48:56;0.40;;;0.40;;
13012;SDS011;22580;57.670;12.006;2022-10-01T12:51:39;0.55;;;0.55;;
13012;SDS011;22580;57.670;12.006;2022-10-01T12:54:17;0.70;;;0.70;;
13012;SDS011;22580;57.670;12.006;2022-10-01T12:56:58;0.70;;;0.70;;
13012;SDS011;22580;57.670;12.006;2022-10-01T12:59:34;0.80;;;0.80;;
13012;SDS011;22580;57.670;12.006;2022-10-01T13:02:19;1.23;;;0.80;;
13012;SDS011;22580;57.670;12.006;2022-10-01T13:05:11;0.73;;;0.73;;
13012;SDS011;22580;57.670;12.006;2022-10-01T13:07:49;0.90;;;0.90;;
13012;SDS011;22580;57.670;12.006;2022-10-01T13:10:34;1.33;;;1.03;;
13012;SDS011;22580;57.670;12.006;2022-10-01T13:13:21;1.20;;;1.10;;
13012;SDS011;22580;57.670;12.006;2022-10-01T13:15:51;1.03;;;0.90;;
13012;SDS011;22580;57.670;12.006;2022-10-01T13:18:26;0.50;;;0.50;;
13012;SDS011;22580;57.670;12.006;2022-10-01T13:21:05;0.70;;;0.70;;
13012;SDS011;22580;57.670;12.006;2022-10-01T13:23:39;0.70;;;0.70;;
13012;SDS011;22580;57.670;12.006;2022-10-01T13:26:14;1.03;;;1.00;;
13012;SDS011;22580;57.670;12.006;2022-10-01T13:28:56;1.30;;;0.90;;
13012;SDS011;22580;57.670;12.006;2022-10-01T13:31:33;0.80;;;0.80;;
13012;SDS011;22580;57.670;12.006;2022-10-01T13:34:20;1.30;;;1.20;;
13012;SDS011;22580;57.670;12.006;2022-10-01T13:36:53;1.17;;;1.07;;
13012;SDS011;22580;57.670;12.006;2022-10-01T13:39:21;0.80;;;0.80;;
13012;SDS011;22580;57.670;12.006;2022-10-01T13:41:54;0.70;;;0.70;;
13012;SDS011;22580;57.670;12.006;2022-10-01T13:44:24;0.60;;;0.60;;
13012;SDS011;22580;57.670;12.006;2022-10-01T13:46:59;0.73;;;0.73;;
13012;SDS011;22580;57.670;12.006;2022-10-01T13:49:30;1.33;;;1.17;;
13012;SDS011;22580;57.670;12.006;2022-10-01T13:51:58;0.90;;;0.90;;
13012;SDS011;22580;57.670;12.006;2022-10-01T13:54:29;1.00;;;1.00;;
13012;SDS011;22580;57.670;12.006;2022-10-01T13:57:09;1.07;;;0.90;;
13012;SDS011;22580;57.670;12.006;2022-10-01T13:59:56;0.90;;;0.90;;
13012;SDS011;22580;57.670;12.006;2022-10-01T14:02:29;0.90;;;0.90;;
13012;SDS011;22580;57.670;12.006;2022-10-01T14:05:19;1.30;;;1.20;;
13012;SDS011;22580;57.670;12.006;2022-10-01T14:07:55;1.40;;;1.30;;
13012;SDS011;22580;57.670;12.006;2022-10-01T14:10:35;1.37;;;1.27;;
13012;SDS011;22580;57.670;12.006;2022-10-01T14:13:27;1.40;;;1.30;;
13012;SDS011;22580;57.670;12.006;2022-10-01T14:16:15;0.93;;;0.93;;
13012;SDS011;22580;57.670;12.006;2022-10-01T14:18:43;1.03;;;0.70;;
13012;SDS011;22580;57.670;12.006;2022-10-01T14:21:21;0.80;;;0.80;;
13012;SDS011;22580;57.670;12.006;2022-10-01T14:24:01;0.70;;;0.70;;
13012;SDS011;22580;57.670;12.006;2022-10-01T14:26:42;1.00;;;0.90;;
13012;SDS011;22580;57.670;12.006;2022-10-01T14:29:23;0.83;;;0.60;;
13012;SDS011;22580;57.670;12.006;2022-10-01T14:31:59;0.70;;;0.70;;
13012;SDS011;22580;57.670;12.006;2022-10-01T14:34:42;1.00;;;1.00;;
13012;SDS011;22580;57.670;12.006;2022-10-01T14:37:16;0.83;;;0.83;;
13012;SDS011;22580;57.670;12.006;2022-10-01T14:39:44;0.60;;;0.60;;
13012;SDS011;22580;57.670;12.006;2022-10-01T14:42:25;0.90;;;0.90;;
13012;SDS011;22580;57.670;12.006;2022-10-01T14:44:56;0.90;;;0.90;;
13012;SDS011;22580;57.670;12.006;2022-10-01T14:47:23;0.70;;;0.70;;
13012;SDS011;22580;57.670;12.006;2022-10-01T14:49:52;0.80;;;0.80;;
13012;SDS011;22580;57.670;12.006;2022-10-01T14:52:21;0.70;;;0.70;;
13012;SDS011;22580;57.670;12.006;2022-10-01T14:54:52;0.70;;;0.70;;
13012;SDS011;22580;57.670;12.006;2022-10-01T14:57:26;0.60;;;0.60;;
13012;SDS011;22580;57.670;12.006;2022-10-01T14:59:57;0.53;;;0.53;;
13012;SDS011;22580;57.670;12.006;2022-10-01T15:02:28;0.90;;;0.90;;
13012;SDS011;22580;57.670;12.006;2022-10-01T15:04:55;0.80;;;0.80;;